Time;durP1;ratioP1;P1;durP2;ratioP2;P2;SDS_P1;SDS_P2;PMS_P1;PMS_P2;Temp;Humidity;BMP_temperature;BMP_pressure;BME280_temperature;BME280_humidity;BME280_pressure;Samples;Min_cycle;Max_cycle;Signal;HPM_P1;HPM_P2
2021/08/27 00:02:25;;;;;;;18.73;8.80;;;;;;;16.02;82.89;100112.57;126239;1099;104235;-78
2021/08/27 00:04:56;;;;;;;17.70;8.80;;;;;;;16.03;82.89;100116.09;126318;1099;104217;-78
2021/08/27 00:07:27;;;;;;;17.87;8.70;;;;;;;16.01;82.82;100112.56;126296;1099;104175;-78
2021/08/27 00:09:58;;;;;;;21.83;8.37;;;;;;;16.01;82.67;100113.44;126373;1099;104249;-78
2021/08/27 00:12:28;;;;;;;15.20;7.97;;;;;;;16.04;82.78;100120.52;126321;1099;104172;-77
2021/08/27 00:15:10;;;;;;;17.40;8.47;;;;;;;16.04;82.89;100121.40;126348;1099;104166;-77
2021/08/27 00:17:41;;;;;;;16.42;8.48;;;;;;;16.01;82.09;100112.56;126282;1099;104169;-78
2021/08/27 00:20:14;;;;;;;17.63;8.67;;;;;;;15.99;82.39;100113.42;126318;1099;104245;-78
2021/08/27 00:22:46;;;;;;;20.97;8.70;;;;;;;15.99;82.42;100110.78;126357;1099;104229;-78
2021/08/27 00:25:17;;;;;;;18.70;8.57;;;;;;;16.03;82.94;100116.09;126329;1099;104220;-78
2021/08/27 00:27:48;;;;;;;17.60;8.57;;;;;;;16.05;82.51;100114.33;126317;1099;104625;-79
2021/08/27 00:30:19;;;;;;;18.53;8.27;;;;;;;16.06;83.08;100114.34;126327;1099;104281;-77
2021/08/27 00:32:49;;;;;;;22.40;9.13;;;;;;;16.03;82.30;100114.32;126285;1099;104174;-78
2021/08/27 00:35:21;;;;;;;18.47;8.87;;;;;;;15.96;82.79;100108.11;126283;1099;104211;-78
2021/08/27 00:37:51;;;;;;;21.27;9.17;;;;;;;15.91;82.48;100111.58;126254;1099;104134;-78
2021/08/27 00:40:22;;;;;;;18.80;9.20;;;;;;;15.93;82.49;100104.56;126369;1099;104239;-76
2021/08/27 00:42:55;;;;;;;20.82;8.85;;;;;;;15.92;82.66;100106.30;126351;1099;104143;-78
2021/08/27 00:45:26;;;;;;;21.67;8.70;;;;;;;15.91;82.61;100106.29;126344;1099;104143;-78
2021/08/27 00:47:56;;;;;;;17.93;8.40;;;;;;;15.94;82.82;100109.87;126267;1099;104146;-77
2021/08/27 00:50:27;;;;;;;18.70;8.37;;;;;;;15.93;82.94;100109.86;126302;1099;104168;-79
2021/08/27 00:52:58;;;;;;;18.30;8.40;;;;;;;15.91;82.49;100114.23;126380;1098;104185;-79
2021/08/27 00:55:29;;;;;;;19.17;8.70;;;;;;;15.87;83.26;100110.68;126314;1099;104233;-78
2021/08/27 00:58:00;;;;;;;19.40;8.73;;;;;;;15.87;82.67;100120.39;126306;1099;104236;-77
2021/08/27 01:00:31;;;;;;;18.63;8.60;;;;;;;15.84;82.97;100118.59;126345;1099;104165;-78
2021/08/27 01:03:02;;;;;;;23.20;8.80;;;;;;;15.84;83.11;100118.59;126311;1099;104224;-79
2021/08/27 01:05:34;;;;;;;17.90;8.17;;;;;;;15.84;83.26;100121.23;126362;1099;104152;-78
2021/08/27 01:08:12;;;;;;;19.50;8.53;;;;;;;15.77;83.21;100122.95;126267;1097;104156;-78
2021/08/27 01:10:50;;;;;;;20.23;8.57;;;;;;;15.73;82.70;100121.11;126335;1099;104586;-78
2021/08/27 01:13:27;;;;;;;20.77;8.97;;;;;;;15.69;83.09;100119.34;126366;1099;104171;-79
2021/08/27 01:16:06;;;;;;;20.03;9.57;;;;;;;15.65;82.87;100117.53;126311;1099;104720;-79
2021/08/27 01:18:45;;;;;;;20.27;9.47;;;;;;;15.61;82.75;100121.00;126281;1099;104149;-79
2021/08/27 01:21:38;;;;;;;20.13;9.27;;;;;;;15.61;82.78;100121.00;126329;1099;104162;-78
2021/08/27 01:24:11;;;;;;;20.83;9.80;;;;;;;15.63;82.86;100119.28;126287;1099;104187;-78
2021/08/27 01:26:45;;;;;;;20.97;9.00;;;;;;;15.66;82.71;100121.05;126324;1099;104273;-78
2021/08/27 01:29:29;;;;;;;19.93;9.00;;;;;;;15.68;82.78;100120.20;126184;1099;108221;-78
2021/08/27 01:32:08;;;;;;;19.57;9.30;;;;;;;15.68;82.72;100128.13;126371;1099;104143;-77
2021/08/27 01:34:43;;;;;;;20.10;8.63;;;;;;;15.69;82.59;100123.72;126323;1099;104242;-79
2021/08/27 01:37:18;;;;;;;22.97;9.30;;;;;;;15.66;83.31;100128.98;126325;1099;104252;-77
2021/08/27 01:39:48;;;;;;;;;;;;;;;15.61;83.13;100132.49;126380;1099;118935;-78
2021/08/27 01:42:23;;;;;;;20.97;8.80;;;;;;;15.59;82.68;100126.28;126293;1097;104332;-78
2021/08/27 01:44:56;;;;;;;18.97;8.57;;;;;;;15.63;83.04;100136.02;126369;1099;104144;-77
2021/08/27 01:47:31;;;;;;;;;;;;;;;15.65;82.44;100128.11;126303;1099;104179;-78
2021/08/27 01:50:02;;;;;;;21.52;9.73;;;;;;;15.63;82.75;100135.15;126322;1097;104714;-79
2021/08/27 01:52:34;;;;;;;20.33;10.77;;;;;;;15.59;82.68;100128.92;126353;1099;104146;-79
2021/08/27 01:55:07;;;;;;;22.27;10.30;;;;;;;15.60;83.53;100128.06;126232;1099;104300;-78
2021/08/27 01:57:39;;;;;;;24.67;10.53;;;;;;;15.58;83.00;100131.55;126316;1099;104149;-79
2021/08/27 02:00:11;;;;;;;23.40;11.13;;;;;;;15.49;82.76;100131.47;126321;1099;104576;-78
2021/08/27 02:02:44;;;;;;;35.20;10.07;;;;;;;15.39;82.67;100120.80;126311;1099;104175;-77
2021/08/27 02:05:16;;;;;;;25.90;11.05;;;;;;;15.33;83.22;100120.73;126348;1099;104143;-77
2021/08/27 02:07:48;;;;;;;24.93;11.03;;;;;;;15.31;82.70;100121.61;126306;1099;104293;-78
2021/08/27 02:10:19;;;;;;;33.70;11.03;;;;;;;15.27;83.31;100120.70;126294;1099;104191;-79
2021/08/27 02:12:51;;;;;;;35.03;11.90;;;;;;;15.23;83.22;100114.47;126317;1099;105129;-78
2021/08/27 02:15:24;;;;;;;27.77;12.27;;;;;;;15.20;82.86;100118.84;126361;1099;104240;-78
2021/08/27 02:17:57;;;;;;;37.97;12.53;;;;;;;15.21;83.64;100121.52;126296;1099;104319;-79
2021/08/27 02:20:29;;;;;;;39.47;12.77;;;;;;;15.22;83.48;100118.01;126196;1099;104714;-79
2021/08/27 02:23:02;;;;;;;30.13;12.70;;;;;;;15.22;82.79;100128.58;126340;1099;104242;-79
2021/08/27 02:25:35;;;;;;;28.27;12.13;;;;;;;15.21;83.18;100116.23;126331;1099;104143;-78
2021/08/27 02:28:07;;;;;;;25.03;12.73;;;;;;;15.21;84.00;100115.35;126287;1098;104207;-78
2021/08/27 02:30:39;;;;;;;26.47;12.20;;;;;;;15.21;83.58;100121.52;126319;1099;104672;-77
2021/08/27 02:33:12;;;;;;;25.13;12.20;;;;;;;15.20;83.82;100118.84;126329;1099;104293;-79
2021/08/27 02:35:45;;;;;;;30.00;12.93;;;;;;;15.18;83.34;100121.48;126275;1099;102080;-77
2021/08/27 02:38:20;;;;;;;25.93;12.00;;;;;;;15.17;83.39;100117.05;126344;1099;104159;-79
2021/08/27 02:40:53;;;;;;;27.37;12.63;;;;;;;15.18;83.36;100115.31;126306;1099;104245;-79
2021/08/27 02:43:24;;;;;;;29.80;13.40;;;;;;;15.18;83.89;100118.83;126336;1099;104232;-79
2021/08/27 02:45:54;;;;;;;23.87;11.30;;;;;;;15.19;83.72;100119.70;126254;1099;104197;-79
2021/08/27 02:48:26;;;;;;;26.43;12.77;;;;;;;15.21;84.17;100117.99;126309;1099;104241;-78
2021/08/27 02:51:03;;;;;;;25.33;12.07;;;;;;;15.21;84.08;100112.70;126274;1099;104143;-78
2021/08/27 02:53:38;;;;;;;24.97;11.73;;;;;;;15.20;83.70;100122.37;126349;1099;104640;-79
2021/08/27 02:56:14;;;;;;;27.47;13.03;;;;;;;15.18;83.68;100124.12;126330;1099;104182;-79
2021/08/27 02:58:49;;;;;;;29.63;13.97;;;;;;;15.19;84.09;100114.42;126312;1099;104373;-78
2021/08/27 03:01:35;;;;;;;30.67;15.70;;;;;;;15.18;83.76;100116.19;126378;1099;104149;-79
2021/08/27 03:04:12;;;;;;;34.67;16.27;;;;;;;15.18;83.62;100123.24;126326;1098;104258;-78
2021/08/27 03:06:49;;;;;;;34.80;16.90;;;;;;;15.18;83.42;100121.48;126332;1099;104169;-79
2021/08/27 03:09:21;;;;;;;40.30;19.13;;;;;;;15.21;84.24;100131.20;126301;1098;104248;-79
2021/08/27 03:12:00;;;;;;;40.07;19.27;;;;;;;15.22;83.58;100128.58;126322;1099;104316;-78
2021/08/27 03:14:37;;;;;;;41.40;21.43;;;;;;;15.22;84.05;100144.44;126381;1099;104134;-79
2021/08/27 03:17:15;;;;;;;36.10;17.90;;;;;;;15.22;84.16;100144.44;126328;1099;104210;-78
2021/08/27 03:19:54;;;;;;;35.07;17.03;;;;;;;15.23;84.45;100143.55;126306;1099;104239;-78
2021/08/27 03:22:28;;;;;;;53.77;17.10;;;;;;;15.27;83.87;100147.13;126356;1099;104255;-77
2021/08/27 03:25:04;;;;;;;46.70;18.20;;;;;;;15.30;83.67;100152.42;126324;1099;104143;-79
2021/08/27 03:27:41;;;;;;;49.17;17.63;;;;;;;15.34;84.57;100161.30;126371;1099;104312;-79
2021/08/27 03:30:17;;;;;;;41.20;18.15;;;;;;;15.35;84.45;100150.73;126280;1099;104149;-79
2021/08/27 03:32:51;;;;;;;49.90;19.00;;;;;;;15.36;83.71;100147.20;126355;1098;104149;-78
2021/08/27 03:35:23;;;;;;;44.33;18.73;;;;;;;15.42;84.71;100146.39;126348;1097;104893;-77
2021/08/27 03:37:55;;;;;;;32.30;18.63;;;;;;;15.47;84.39;100147.31;126294;1099;104169;-79
2021/08/27 03:40:30;;;;;;;44.00;17.85;;;;;;;15.50;83.87;100144.70;126292;1098;104200;-78
2021/08/27 03:43:01;;;;;;;36.17;17.33;;;;;;;15.53;84.31;100149.14;126369;1099;104175;-79
2021/08/27 03:45:33;;;;;;;35.10;19.17;;;;;;;15.55;83.94;100153.59;126350;1099;104249;-79
2021/08/27 03:48:06;;;;;;;44.17;17.23;;;;;;;15.59;83.90;100160.66;126328;1099;104144;-78
2021/08/27 03:50:37;;;;;;;35.53;18.50;;;;;;;15.62;84.97;100162.45;126250;1099;103986;-77
2021/08/27 03:53:11;;;;;;;67.30;18.90;;;;;;;15.67;84.04;100162.50;126356;1099;104340;-77
2021/08/27 03:55:42;;;;;;;51.80;18.45;;;;;;;15.68;83.99;100161.64;126342;1099;104146;-79
2021/08/27 03:58:17;;;;;;;57.67;18.50;;;;;;;15.68;84.26;100167.81;126324;1098;104255;-77
2021/08/27 04:00:49;;;;;;;48.80;17.23;;;;;;;15.68;84.83;100165.16;126296;1099;104358;-78
2021/08/27 04:03:22;;;;;;;57.13;18.90;;;;;;;15.70;84.88;100163.41;126346;1099;104325;-78
2021/08/27 04:06:03;;;;;;;;;;;;;;;15.71;84.03;100170.48;126412;1099;104198;-78
2021/08/27 04:08:37;;;;;;;43.63;17.77;;;;;;;15.70;84.93;100171.34;126354;1099;104329;-78
2021/08/27 04:11:10;;;;;;;48.50;18.03;;;;;;;15.71;84.03;100165.19;126322;1099;104232;-78
2021/08/27 04:13:41;;;;;;;46.60;18.03;;;;;;;15.73;84.17;100168.73;126354;1099;104137;-78
2021/08/27 04:16:12;;;;;;;36.40;16.80;;;;;;;15.74;84.49;100173.16;126304;1099;104137;-79
2021/08/27 04:18:43;;;;;;;50.93;17.47;;;;;;;15.68;84.73;100169.58;126347;1099;104185;-78
2021/08/27 04:21:13;;;;;;;51.87;18.93;;;;;;;15.67;84.16;100173.08;126285;1099;104162;-78
2021/08/27 04:23:44;;;;;;;36.70;19.23;;;;;;;15.69;84.10;100176.62;126332;1098;104249;-77
2021/08/27 04:26:17;;;;;;;46.17;19.23;;;;;;;15.72;84.20;100172.27;126339;1099;104190;-78
2021/08/27 04:28:48;;;;;;;38.23;19.80;;;;;;;15.75;84.58;100174.03;126296;1097;104303;-79
2021/08/27 04:31:18;;;;;;;43.40;20.27;;;;;;;15.83;85.19;100168.84;126294;1099;105504;-78
2021/08/27 04:33:50;;;;;;;50.87;18.53;;;;;;;15.85;85.08;100182.97;126292;1098;104619;-78
2021/08/27 04:36:21;;;;;;;40.43;20.10;;;;;;;15.85;84.41;100188.26;126369;1099;104146;-78
2021/08/27 04:38:53;;;;;;;33.23;19.53;;;;;;;15.91;85.08;100189.22;126326;1099;104207;-79
2021/08/27 04:41:23;;;;;;;38.53;21.53;;;;;;;15.96;85.16;100203.37;126250;1099;104127;-78
2021/08/27 04:43:56;;;;;;;42.40;19.87;;;;;;;16.02;84.74;100199.91;126334;1099;104142;-78
2021/08/27 04:46:26;;;;;;;35.67;18.10;;;;;;;16.08;84.44;100207.89;126270;1099;104236;-78
2021/08/27 04:48:57;;;;;;;36.67;19.50;;;;;;;16.15;84.79;100209.70;126186;1099;104312;-78
2021/08/27 04:51:31;;;;;;;33.53;18.83;;;;;;;16.23;85.42;100208.89;126212;1099;104143;-79
2021/08/27 04:54:02;;;;;;;33.65;19.25;;;;;;;16.29;85.36;100204.52;126335;1099;104231;-78
2021/08/27 04:56:34;;;;;;;45.13;18.80;;;;;;;16.39;85.39;100209.88;126349;1097;104198;-78
2021/08/27 04:59:05;;;;;;;32.93;18.33;;;;;;;16.45;84.92;100212.58;126267;1099;104130;-77
2021/08/27 05:01:36;;;;;;;39.53;21.03;;;;;;;16.50;84.81;100211.75;126229;1099;104194;-78
2021/08/27 05:04:09;;;;;;;35.90;20.77;;;;;;;16.53;84.59;100213.51;126305;1097;104628;-77
2021/08/27 05:06:40;;;;;;;35.10;19.30;;;;;;;16.58;84.67;100221.48;126343;1099;104223;-77
2021/08/27 05:09:11;;;;;;;33.83;20.00;;;;;;;16.62;85.45;100218.87;126345;1099;104241;-79
2021/08/27 05:11:42;;;;;;;33.63;19.13;;;;;;;16.71;85.12;100221.58;126291;1099;104201;-77
2021/08/27 05:14:13;;;;;;;28.40;16.40;;;;;;;16.78;84.86;100217.22;126331;1099;105027;-78
2021/08/27 05:16:44;;;;;;;26.97;15.97;;;;;;;16.84;84.58;100221.65;126335;1099;104146;-79
2021/08/27 05:19:16;;;;;;;27.53;16.23;;;;;;;16.94;85.07;100222.61;126297;1099;104286;-78
2021/08/27 05:21:47;;;;;;;26.33;15.77;;;;;;;17.04;84.87;100227.09;126346;1099;104208;-79
2021/08/27 05:24:21;;;;;;;28.05;15.50;;;;;;;17.14;84.48;100235.97;126269;1099;110870;-78
2021/08/27 05:26:54;;;;;;;26.63;15.03;;;;;;;17.20;84.76;100239.55;126328;1099;104213;-78
2021/08/27 05:29:24;;;;;;;24.83;15.10;;;;;;;17.27;84.76;100240.45;126345;1099;104268;-80
2021/08/27 05:31:58;;;;;;;25.77;14.17;;;;;;;17.23;83.95;100244.88;126289;1097;104187;-77
2021/08/27 05:34:29;;;;;;;26.30;14.50;;;;;;;17.25;84.44;100251.05;126233;1099;105556;-78
2021/08/27 05:37:02;;;;;;;26.23;14.13;;;;;;;17.27;84.00;100247.53;126361;1099;104356;-80
2021/08/27 05:39:33;;;;;;;25.47;13.73;;;;;;;17.28;83.97;100244.89;126321;1098;104592;-79
2021/08/27 05:42:05;;;;;;;24.50;14.17;;;;;;;17.17;83.53;100242.19;126323;1099;104207;-79
2021/08/27 05:44:36;;;;;;;27.77;14.93;;;;;;;17.22;84.19;100242.22;126207;1099;104335;-78
2021/08/27 05:47:07;;;;;;;22.83;13.87;;;;;;;17.32;84.47;100245.78;126275;1099;104144;-79
2021/08/27 05:49:42;;;;;;;24.52;15.23;;;;;;;17.39;84.27;100250.20;126310;1099;104309;-78
2021/08/27 05:52:13;;;;;;;26.65;15.55;;;;;;;17.45;84.10;100247.58;126345;1099;104140;-78
2021/08/27 05:54:44;;;;;;;26.50;15.57;;;;;;;17.51;84.15;100255.56;126279;1099;104134;-79
2021/08/27 05:57:15;;;;;;;25.43;15.13;;;;;;;17.67;83.93;100252.95;126276;1099;104272;-79
2021/08/27 05:59:46;;;;;;;24.20;15.07;;;;;;;17.78;84.00;100254.77;126288;1098;104140;-78
2021/08/27 06:02:18;;;;;;;24.27;14.67;;;;;;;17.93;83.81;100245.97;126382;1099;104165;-78
2021/08/27 06:04:49;;;;;;;23.27;13.47;;;;;;;18.01;83.25;100238.01;126276;1099;104774;-77
2021/08/27 06:07:20;;;;;;;28.17;14.90;;;;;;;18.04;83.73;100248.63;126304;1099;104340;-78
2021/08/27 06:09:52;;;;;;;23.67;14.07;;;;;;;18.10;83.11;100253.08;126294;1099;104335;-78
2021/08/27 06:12:23;;;;;;;29.67;15.17;;;;;;;18.04;83.46;100253.94;126326;1098;104463;-77
2021/08/27 06:14:54;;;;;;;29.27;16.53;;;;;;;18.07;83.50;100251.30;126271;1099;102943;-79
2021/08/27 06:17:26;;;;;;;29.33;17.43;;;;;;;17.96;82.51;100256.59;126332;1099;102892;-79
2021/08/27 06:19:56;;;;;;;29.63;17.37;;;;;;;17.83;82.59;100260.09;126291;1099;104156;-78
2021/08/27 06:22:27;;;;;;;27.47;17.43;;;;;;;17.81;82.75;100258.30;126310;1099;104146;-78
2021/08/27 06:24:58;;;;;;;31.23;18.10;;;;;;;17.78;82.92;100259.20;126260;1098;104242;-77
2021/08/27 06:27:29;;;;;;;29.20;17.07;;;;;;;17.75;82.94;100257.41;126280;1098;104233;-78
2021/08/27 06:30:00;;;;;;;29.10;17.43;;;;;;;17.75;82.81;100260.06;126356;1099;104237;-78
2021/08/27 06:32:33;;;;;;;30.60;18.43;;;;;;;17.71;82.92;100255.62;126302;1099;104287;-78
2021/08/27 06:35:05;;;;;;;30.57;16.60;;;;;;;17.74;83.10;100260.94;126253;1099;104251;-78
2021/08/27 06:40:22;;;;;;;26.83;15.73;;;;;;;17.78;83.10;100248.59;126269;1099;104236;-78
2021/08/27 06:42:54;;;;;;;29.00;16.33;;;;;;;17.86;83.03;100257.44;126294;1099;104242;-78
2021/08/27 06:45:26;;;;;;;26.77;16.00;;;;;;;17.96;83.12;100245.97;126252;1099;104140;-78
2021/08/27 06:47:57;;;;;;;28.07;16.03;;;;;;;18.05;83.03;100253.07;126287;1097;104239;-77
2021/08/27 06:50:29;;;;;;;24.60;14.53;;;;;;;18.14;82.95;100258.39;126342;1099;104252;-78
2021/08/27 06:53:00;;;;;;;24.93;15.27;;;;;;;18.21;82.81;100256.62;126350;1098;104162;-78
2021/08/27 06:55:32;;;;;;;28.03;15.70;;;;;;;18.24;82.43;100251.30;126280;1099;104197;-79
2021/08/27 06:58:03;;;;;;;31.97;16.10;;;;;;;18.27;82.50;100245.13;126310;1099;104140;-78
2021/08/27 07:00:36;;;;;;;26.27;15.50;;;;;;;18.38;82.72;100242.47;126342;1099;104188;-78
2021/08/27 07:03:09;;;;;;;24.17;13.33;;;;;;;18.49;83.04;100246.87;126320;1099;104159;-79
2021/08/27 07:05:40;;;;;;;25.97;13.67;;;;;;;18.61;82.21;100253.95;126283;1099;104140;-79
2021/08/27 07:08:12;;;;;;;26.50;13.10;;;;;;;18.75;82.47;100253.06;126321;1099;104142;-79
2021/08/27 07:10:44;;;;;;;18.80;11.23;;;;;;;18.87;81.99;100242.44;126276;1099;104146;-79
2021/08/27 07:13:16;;;;;;;20.07;10.53;;;;;;;19.02;82.56;100245.03;126316;1099;105186;-77
2021/08/27 07:15:47;;;;;;;19.93;9.47;;;;;;;19.12;81.77;100250.31;126219;1099;104217;-77
2021/08/27 07:18:19;;;;;;;17.73;9.80;;;;;;;19.21;81.60;100247.63;126295;1099;104192;-78
2021/08/27 07:20:50;;;;;;;16.57;9.10;;;;;;;19.31;80.99;100251.16;126321;1099;104146;-78
2021/08/27 07:23:20;;;;;;;20.10;9.80;;;;;;;19.42;81.41;100251.98;126335;1099;104166;-78
2021/08/27 07:25:52;;;;;;;18.87;9.70;;;;;;;19.53;81.26;100249.28;126206;1099;104291;-78
2021/08/27 07:28:30;;;;;;;14.57;8.03;;;;;;;19.62;80.57;100251.89;126313;1098;104198;-78
2021/08/27 07:31:02;;;;;;;13.93;7.90;;;;;;;19.72;79.73;100245.61;126364;1099;104136;-78
2021/08/27 07:33:32;;;;;;;13.53;7.80;;;;;;;19.78;80.35;100243.86;126356;1099;104599;-78
2021/08/27 07:36:04;;;;;;;15.80;8.33;;;;;;;19.87;80.25;100246.47;126296;1098;104271;-79
2021/08/27 07:38:35;;;;;;;16.30;7.90;;;;;;;19.98;79.20;100241.94;126297;1099;104294;-78
2021/08/27 07:41:06;;;;;;;13.47;7.47;;;;;;;20.02;78.86;100245.45;126347;1099;104644;-79
2021/08/27 07:43:37;;;;;;;13.23;7.37;;;;;;;20.05;77.80;100245.44;126316;1099;104140;-78
2021/08/27 07:46:07;;;;;;;13.40;7.53;;;;;;;20.07;78.84;100246.30;126308;1099;104226;-78
2021/08/27 07:48:39;;;;;;;11.70;6.83;;;;;;;20.19;78.63;100240.00;126305;1099;104454;-78
2021/08/27 07:51:10;;;;;;;12.97;7.27;;;;;;;20.31;78.11;100241.70;126279;1099;104360;-78
2021/08/27 07:53:46;;;;;;;11.23;6.43;;;;;;;20.40;77.33;100250.48;126309;1099;104239;-81
2021/08/27 07:56:22;;;;;;;11.43;5.92;;;;;;;20.56;77.88;100250.35;126275;1099;104162;-78
2021/08/27 07:58:54;;;;;;;12.20;6.80;;;;;;;20.70;77.65;100247.59;126347;1099;104143;-78
2021/08/27 08:01:25;;;;;;;15.97;6.90;;;;;;;20.75;77.06;100259.08;126352;1099;104149;-78
2021/08/27 08:03:56;;;;;;;11.43;6.40;;;;;;;20.95;77.71;100259.75;126348;1098;104134;-79
2021/08/27 08:06:28;;;;;;;11.53;6.57;;;;;;;21.19;77.25;100253.27;126233;1098;104143;-78
2021/08/27 08:08:58;;;;;;;16.30;7.17;;;;;;;21.36;76.45;100255.73;126251;1099;104146;-77
2021/08/27 08:11:30;;;;;;;9.03;5.97;;;;;;;21.52;76.13;100251.11;126304;1099;104264;-78
2021/08/27 08:14:01;;;;;;;7.37;4.70;;;;;;;21.62;75.40;100261.66;126249;1099;104541;-79
2021/08/27 08:16:32;;;;;;;11.03;6.27;;;;;;;21.69;75.31;100252.64;126238;1099;105412;-77
2021/08/27 08:19:03;;;;;;;10.37;5.80;;;;;;;21.71;74.35;100245.52;126361;1099;104173;-78
2021/08/27 08:21:35;;;;;;;14.40;5.93;;;;;;;21.83;74.58;100239.09;126306;1099;104165;-78
2021/08/27 08:24:07;;;;;;;10.23;5.93;;;;;;;21.93;74.85;100239.86;126326;1099;104149;-79
2021/08/27 08:26:38;;;;;;;17.33;8.50;;;;;;;21.88;73.77;100230.13;126279;1099;104274;-78
2021/08/27 08:29:09;;;;;;;14.17;8.10;;;;;;;21.96;73.84;100234.47;126331;1098;104153;-78
2021/08/27 08:31:41;;;;;;;14.07;6.47;;;;;;;21.99;73.81;100234.43;126365;1098;104303;-78
2021/08/27 08:34:11;;;;;;;10.90;6.63;;;;;;;22.07;73.55;100230.70;126319;1099;104284;-78
2021/08/27 08:36:42;;;;;;;13.10;7.77;;;;;;;22.08;73.42;100229.81;126291;1099;104240;-78
2021/08/27 08:39:14;;;;;;;15.63;8.97;;;;;;;22.13;72.80;100236.85;126309;1099;104197;-78
2021/08/27 08:41:48;;;;;;;17.70;9.63;;;;;;;22.12;72.43;100233.31;126307;1099;104392;-79
2021/08/27 08:44:20;;;;;;;15.87;7.50;;;;;;;22.19;72.22;100232.31;126291;1099;104194;-78
2021/08/27 08:46:53;;;;;;;13.80;7.07;;;;;;;22.27;72.09;100232.19;126303;1099;104156;-78
2021/08/27 08:49:29;;;;;;;11.35;6.40;;;;;;;22.31;70.93;100220.55;126339;1099;104166;-77
2021/08/27 08:52:01;;;;;;;12.83;7.67;;;;;;;22.38;70.62;100222.22;126345;1099;104178;-78
2021/08/27 08:54:33;;;;;;;14.00;7.93;;;;;;;22.48;70.70;100216.72;126305;1099;104172;-77
2021/08/27 08:57:05;;;;;;;14.53;8.60;;;;;;;22.46;69.75;100219.41;126303;1099;104181;-78
2021/08/27 08:59:38;;;;;;;17.97;8.97;;;;;;;22.49;70.04;100208.66;126327;1099;104150;-79
2021/08/27 09:02:09;;;;;;;18.17;8.23;;;;;;;22.54;70.01;100208.58;126352;1099;104169;-78
2021/08/27 09:04:41;;;;;;;17.07;9.50;;;;;;;22.57;69.49;100212.07;126315;1099;104146;-78
2021/08/27 09:07:14;;;;;;;18.17;9.10;;;;;;;22.55;68.42;100200.53;126262;1099;104302;-78
2021/08/27 09:09:46;;;;;;;16.80;8.53;;;;;;;22.61;68.82;100202.23;126319;1099;104274;-78
2021/08/27 09:12:24;;;;;;;13.37;6.97;;;;;;;22.67;68.73;100201.20;126323;1099;104269;-79
2021/08/27 09:15:02;;;;;;;16.43;6.77;;;;;;;22.73;68.96;100191.27;126350;1099;104708;-78
2021/08/27 09:17:35;;;;;;;10.33;5.77;;;;;;;22.86;68.07;100194.61;126304;1099;104144;-78
2021/08/27 09:20:08;;;;;;;11.30;5.70;;;;;;;22.91;67.42;100194.52;126277;1099;102020;-79
2021/08/27 09:22:51;;;;;;;11.57;6.00;;;;;;;22.97;67.84;100189.91;126351;1099;104137;-79
2021/08/27 09:25:25;;;;;;;8.43;5.70;;;;;;;22.98;66.66;100190.78;126330;1099;104223;-77
2021/08/27 09:28:07;;;;;;;10.13;5.90;;;;;;;23.00;66.70;100194.33;126284;1097;104204;-79
2021/08/27 09:30:59;;;;;;;10.47;5.80;;;;;;;23.04;66.63;100197.81;126314;1099;104197;-78
2021/08/27 09:33:36;;;;;;;9.37;5.40;;;;;;;23.11;66.68;100192.34;126292;1099;104152;-77
2021/08/27 09:36:12;;;;;;;9.13;5.30;;;;;;;23.06;63.64;100193.30;126362;1099;104230;-79
2021/08/27 09:38:44;;;;;;;9.20;4.97;;;;;;;23.08;64.55;100194.17;126313;1099;104217;-78
2021/08/27 09:41:23;;;;;;;10.47;5.30;;;;;;;23.18;65.00;100193.08;126353;1099;104165;-77
2021/08/27 09:43:57;;;;;;;9.67;5.10;;;;;;;23.27;65.13;100197.37;126355;1098;104217;-79
2021/08/27 09:46:35;;;;;;;9.90;5.50;;;;;;;23.25;64.69;100186.70;126322;1099;104152;-79
2021/08/27 09:49:24;;;;;;;9.77;5.00;;;;;;;23.34;65.00;100190.95;126263;1098;104242;-80
2021/08/27 09:51:56;;;;;;;10.63;5.70;;;;;;;23.44;64.80;100179.13;126316;1099;104207;-78
2021/08/27 09:54:29;;;;;;;12.73;6.00;;;;;;;23.55;64.89;100184.25;126323;1097;104159;-78
2021/08/27 09:57:02;;;;;;;12.23;6.13;;;;;;;23.52;63.08;100181.64;126365;1099;104245;-78
2021/08/27 09:59:38;;;;;;;12.07;6.23;;;;;;;23.52;63.37;100184.31;126281;1098;104299;-80
2021/08/27 10:02:12;;;;;;;16.13;8.17;;;;;;;23.61;63.22;100183.23;126334;1099;104221;-79
2021/08/27 10:04:54;;;;;;;12.18;6.05;;;;;;;23.70;63.70;100180.34;126341;1099;104188;-79
2021/08/27 10:07:30;;;;;;;12.27;5.67;;;;;;;23.79;63.41;100177.41;126337;1099;104261;-79
2021/08/27 10:10:04;;;;;;;12.47;5.53;;;;;;;23.84;63.16;100182.70;126296;1099;118922;-80
2021/08/27 10:12:37;;;;;;;8.73;5.00;;;;;;;23.74;62.91;100192.73;126275;1099;104197;-78
2021/08/27 10:15:09;;;;;;;10.00;5.60;;;;;;;23.78;62.11;100201.56;126341;1099;103944;-78
2021/08/27 10:17:42;;;;;;;9.58;5.60;;;;;;;23.85;62.42;100197.87;126321;1099;104145;-77
2021/08/27 10:20:15;;;;;;;10.98;6.03;;;;;;;24.00;62.23;100199.31;126108;1099;104163;-78
2021/08/27 10:22:46;;;;;;;9.17;5.50;;;;;;;24.12;61.37;100193.65;126211;1099;104163;-79
2021/08/27 10:25:18;;;;;;;14.00;5.67;;;;;;;24.08;61.73;100188.40;126140;1099;104248;-78
2021/08/27 10:27:50;;;;;;;11.43;5.70;;;;;;;24.07;61.18;100170.55;126213;1099;104133;-78
2021/08/27 10:30:46;;;;;;;10.10;5.17;;;;;;;24.15;60.89;100165.86;126071;1099;104149;-79
2021/08/27 10:33:17;;;;;;;10.70;5.37;;;;;;;24.32;61.26;100155.57;125348;1099;104139;-79
2021/08/27 10:35:52;;;;;;;9.73;4.83;;;;;;;24.37;60.60;100145.63;126206;1099;104336;-78
2021/08/27 10:38:40;;;;;;;9.37;5.20;;;;;;;24.48;61.14;100152.48;126154;1099;104353;-79
2021/08/27 10:41:16;;;;;;;9.30;5.33;;;;;;;24.53;59.38;100137.16;126165;1099;104313;-79
2021/08/27 10:43:58;;;;;;;9.53;5.00;;;;;;;24.61;60.16;100140.53;126199;1099;104310;-77
2021/08/27 10:47:07;;;;;;;11.63;4.83;;;;;;;24.71;59.70;100133.10;126243;1099;105141;-79
2021/08/27 10:49:56;;;;;;;14.50;5.43;;;;;;;24.64;58.81;100132.41;125564;1099;104198;-78
2021/08/27 10:52:34;;;;;;;8.27;4.90;;;;;;;24.35;57.53;100139.41;126249;1099;104242;-78
2021/08/27 10:55:19;;;;;;;8.45;5.10;;;;;;;24.41;58.88;100144.59;126320;1099;104222;-78
2021/08/27 10:58:03;;;;;;;9.70;5.50;;;;;;;24.50;58.53;100145.30;126304;1099;104198;-78
2021/08/27 11:00:37;;;;;;;7.60;4.60;;;;;;;24.61;58.22;100153.08;126255;1099;104149;-78
2021/08/27 11:03:10;;;;;;;8.07;4.60;;;;;;;24.72;58.08;100164.38;126330;1099;104223;-77
2021/08/27 11:05:45;;;;;;;8.15;4.80;;;;;;;24.67;57.83;100161.83;126321;1099;104245;-77
2021/08/27 11:08:15;;;;;;;;;;;;;;;24.71;57.55;100160.83;126335;1098;104213;-78
2021/08/27 11:11:07;;;;;;;8.93;5.10;;;;;;;24.68;57.76;100160.02;126278;1099;104142;-78
2021/08/27 11:13:39;;;;;;;9.23;5.13;;;;;;;24.68;57.71;100150.19;126307;1099;104275;-78
2021/08/27 11:16:27;;;;;;;9.17;5.17;;;;;;;24.76;57.78;100155.30;126331;1099;104258;-77
2021/08/27 11:19:30;;;;;;;8.27;4.93;;;;;;;24.82;57.81;100154.26;126254;1099;104149;-78
2021/08/27 11:22:25;;;;;;;9.97;4.47;;;;;;;24.97;57.88;100152.95;126235;1099;104242;-78
2021/08/27 11:25:22;;;;;;;7.87;4.93;;;;;;;25.16;57.09;100154.14;126305;1099;104242;-79
2021/08/27 11:28:09;;;;;;;10.40;5.00;;;;;;;25.42;56.90;100150.70;126377;1099;104200;-79
2021/08/27 11:30:41;;;;;;;8.10;4.60;;;;;;;25.45;57.10;100150.59;126272;1099;104217;-78
2021/08/27 11:33:40;;;;;;;9.08;5.30;;;;;;;25.42;56.76;100152.52;126273;1099;104134;-79